createdAt,value
2023-04-10T00:00:03.207Z,27.30
2023-04-10T00:01:03.414Z,27.70
2023-04-10T00:02:03.657Z,27.20
2023-04-10T00:03:04.309Z,27.80
2023-04-10T00:04:04.332Z,27.50
2023-04-10T00:05:04.489Z,26.80
2023-04-10T00:06:04.699Z,28.10
2023-04-10T00:07:04.860Z,28.80
2023-04-10T00:08:05.180Z,27.60
2023-04-10T00:09:05.388Z,27.20
2023-04-10T00:10:05.709Z,27.90
2023-04-10T00:11:05.893Z,27.10
2023-04-10T00:12:06.218Z,27.70
2023-04-10T00:13:06.401Z,27.50
2023-04-10T00:14:06.721Z,28.00
2023-04-10T00:15:06.969Z,27.50
2023-04-10T00:16:07.184Z,28.10
2023-04-10T00:17:07.370Z,27.90
2023-04-10T00:18:07.729Z,27.40
2023-04-10T00:19:07.939Z,28.00
2023-04-10T00:20:08.284Z,27.50
2023-04-10T00:21:08.467Z,27.70
2023-04-10T00:22:08.792Z,28.50
2023-04-10T00:23:09.106Z,27.40
2023-04-10T00:24:09.309Z,27.80
2023-04-10T00:25:09.571Z,27.70
2023-04-10T00:26:09.751Z,29.50
2023-04-10T00:27:09.957Z,27.00
2023-04-10T00:28:10.283Z,26.40
2023-04-10T00:29:10.487Z,26.90
2023-04-10T00:30:10.828Z,27.70
2023-04-10T00:31:11.006Z,26.40
2023-04-10T00:32:11.372Z,27.50
2023-04-10T00:33:11.533Z,27.60
2023-04-10T00:34:11.855Z,26.70
2023-04-10T00:35:12.101Z,26.70
2023-04-10T00:36:12.414Z,25.90
2023-04-10T00:37:12.601Z,27.00
2023-04-10T00:38:12.918Z,26.50
2023-04-10T00:39:13.170Z,26.10
2023-04-10T00:40:13.510Z,26.20
2023-04-10T00:41:13.724Z,26.20
2023-04-10T00:42:13.930Z,26.40
2023-04-10T00:43:14.131Z,26.40
2023-04-10T00:44:14.455Z,26.00
2023-04-10T00:45:14.689Z,24.90
2023-04-10T00:46:15.076Z,26.00
2023-04-10T00:47:15.261Z,26.50
2023-04-10T00:48:15.602Z,25.70
2023-04-10T00:49:15.801Z,25.60
2023-04-10T00:50:16.120Z,25.80
2023-04-10T00:51:16.298Z,26.50
2023-04-10T00:52:16.613Z,27.10
2023-04-10T00:53:16.815Z,26.10
2023-04-10T00:54:17.185Z,26.40
2023-04-10T00:55:17.379Z,26.00
2023-04-10T00:56:17.699Z,25.90
2023-04-10T00:57:17.906Z,25.40
2023-04-10T00:58:18.127Z,25.90
2023-04-10T00:59:18.328Z,26.60
2023-04-10T01:00:18.696Z,26.80
2023-04-10T01:01:19.052Z,26.70
2023-04-10T01:02:19.271Z,27.30
2023-04-10T01:03:19.767Z,26.80
2023-04-10T01:04:19.874Z,26.80
2023-04-10T01:05:19.983Z,26.00
2023-04-10T01:06:20.305Z,26.60
2023-04-10T01:07:20.511Z,27.40
2023-04-10T01:08:20.836Z,28.50
2023-04-10T01:09:21.037Z,29.30
2023-04-10T01:10:21.365Z,27.70
2023-04-10T01:11:21.572Z,27.50
2023-04-10T01:12:21.913Z,28.70
2023-04-10T01:13:22.113Z,28.40
2023-04-10T01:14:22.436Z,30.20
2023-04-10T01:15:22.628Z,28.00
2023-04-10T01:16:23.018Z,28.80
2023-04-10T01:17:23.258Z,29.40
2023-04-10T01:18:23.535Z,29.00
2023-04-10T01:19:23.740Z,28.30
2023-04-10T01:20:24.061Z,28.40
2023-04-10T01:21:24.363Z,28.80
2023-04-10T01:22:24.695Z,29.20
2023-04-10T01:23:24.889Z,29.90
2023-04-10T01:24:25.232Z,28.40
2023-04-10T01:25:25.439Z,28.90
2023-04-10T01:26:25.765Z,29.70
2023-04-10T01:27:25.993Z,30.50
2023-04-10T01:28:26.226Z,30.90
2023-04-10T01:29:26.420Z,30.30
2023-04-10T01:30:26.756Z,31.50
2023-04-10T01:31:27.009Z,31.10
2023-04-10T01:32:27.215Z,30.90
2023-04-10T01:33:27.422Z,30.50
2023-04-10T01:34:27.802Z,31.30
2023-04-10T01:35:27.975Z,29.90
2023-04-10T01:36:28.179Z,30.30
2023-04-10T01:37:28.374Z,30.30
2023-04-10T01:38:28.697Z,30.30
2023-04-10T01:39:28.928Z,30.20
2023-04-10T01:40:29.150Z,31.00
2023-04-10T01:41:29.381Z,29.90
2023-04-10T01:42:29.630Z,29.40
2023-04-10T01:43:29.864Z,30.20
2023-04-10T01:44:30.115Z,30.10
2023-04-10T01:45:30.336Z,30.20
2023-04-10T01:46:30.621Z,31.10
2023-04-10T01:47:30.917Z,30.10
2023-04-10T01:48:31.141Z,30.20
2023-04-10T01:49:31.379Z,30.30
2023-04-10T01:50:31.615Z,30.10
2023-04-10T01:51:31.824Z,31.20
2023-04-10T01:52:32.161Z,30.30
2023-04-10T01:53:32.378Z,31.00
2023-04-10T01:54:32.713Z,31.70
2023-04-10T01:55:32.904Z,31.00
2023-04-10T01:56:33.237Z,30.60
2023-04-10T01:57:33.450Z,31.10
2023-04-10T01:58:33.675Z,30.70
2023-04-10T01:59:33.905Z,31.40
2023-04-10T02:00:34.108Z,31.90
2023-04-10T02:01:34.382Z,31.90
2023-04-10T02:02:34.841Z,31.60
2023-04-10T02:03:35.012Z,31.40
2023-04-10T02:04:35.258Z,33.30
2023-04-10T02:05:35.472Z,32.20
2023-04-10T02:06:35.684Z,32.20
2023-04-10T02:07:36.007Z,32.30
2023-04-10T02:08:36.336Z,32.50
2023-04-10T02:09:36.538Z,33.50
2023-04-10T02:10:36.860Z,33.70
2023-04-10T02:11:37.075Z,34.00
2023-04-10T02:12:37.282Z,33.20
2023-04-10T02:13:37.596Z,33.60
2023-04-10T02:14:37.914Z,32.90
2023-04-10T02:15:38.199Z,34.40
2023-04-10T02:16:38.473Z,32.90
2023-04-10T02:17:38.740Z,32.80
2023-04-10T02:18:38.902Z,34.90
2023-04-10T02:19:39.215Z,33.90
2023-04-10T02:20:39.572Z,34.50
2023-04-10T02:21:39.753Z,34.30
2023-04-10T02:22:39.960Z,33.70
2023-04-10T02:23:40.291Z,33.90
2023-04-10T02:24:40.604Z,34.20
2023-04-10T02:25:40.818Z,33.70
2023-04-10T02:26:41.148Z,35.50
2023-04-10T02:27:41.361Z,33.90
2023-04-10T02:28:41.694Z,33.70
2023-04-10T02:29:41.910Z,34.40
2023-04-10T02:30:42.226Z,34.80
2023-04-10T02:31:42.483Z,33.30
2023-04-10T02:32:42.687Z,34.10
2023-04-10T02:33:42.880Z,33.80
2023-04-10T02:34:43.101Z,34.00
2023-04-10T02:35:43.359Z,34.00
2023-04-10T02:36:43.576Z,33.70
2023-04-10T02:37:43.792Z,32.90
2023-04-10T02:38:44.025Z,33.60
2023-04-10T02:39:44.243Z,33.30
2023-04-10T02:40:44.475Z,33.80
2023-04-10T02:41:44.715Z,33.40
2023-04-10T02:42:44.895Z,33.60
2023-04-10T02:43:45.217Z,33.70
2023-04-10T02:44:45.539Z,33.60
2023-04-10T02:45:45.859Z,34.10
2023-04-10T02:46:46.238Z,33.20
2023-04-10T02:47:46.445Z,33.20
2023-04-10T02:48:46.635Z,33.60
2023-04-10T02:49:46.835Z,32.40
2023-04-10T02:50:47.171Z,32.10
2023-04-10T02:51:47.422Z,32.00
2023-04-10T02:52:47.717Z,33.80
2023-04-10T02:53:47.936Z,33.20
2023-04-10T02:54:48.267Z,33.50
2023-04-10T02:55:48.487Z,34.10
2023-04-10T02:56:48.696Z,34.10
2023-04-10T02:57:49.025Z,34.00
2023-04-10T02:58:49.245Z,33.30
2023-04-10T02:59:49.469Z,32.60
2023-04-10T03:00:49.706Z,34.20
2023-04-10T03:01:49.977Z,34.20
2023-04-10T03:02:50.483Z,33.80
2023-04-10T03:03:50.579Z,34.30
2023-04-10T03:04:50.775Z,34.70
2023-04-10T03:05:51.008Z,34.30
2023-04-10T03:06:51.299Z,35.70
2023-04-10T03:07:51.502Z,35.70
2023-04-10T03:08:51.740Z,34.60
2023-04-10T03:09:51.958Z,37.00
2023-04-10T03:10:52.282Z,36.10
2023-04-10T03:11:52.531Z,35.70
2023-04-10T03:12:52.760Z,34.30
2023-04-10T03:13:53.161Z,34.30
2023-04-10T03:14:53.192Z,35.00
2023-04-10T03:15:53.463Z,35.30
2023-04-10T03:16:53.672Z,34.50
2023-04-10T03:17:53.929Z,34.40
2023-04-10T03:18:54.210Z,34.70
2023-04-10T03:19:54.421Z,34.90
2023-04-10T03:20:54.767Z,35.30
2023-04-10T03:21:54.975Z,35.20
2023-04-10T03:22:55.325Z,37.00
2023-04-10T03:23:55.754Z,36.40
2023-04-10T03:24:55.815Z,36.90
2023-04-10T03:25:56.050Z,36.20
2023-04-10T03:26:56.246Z,38.30
2023-04-10T03:27:56.469Z,37.00
2023-04-10T03:28:56.790Z,36.90
2023-04-10T03:29:57.005Z,37.20
2023-04-10T03:30:57.249Z,36.20
2023-04-10T03:31:57.662Z,35.00
2023-04-10T03:32:57.770Z,36.20
2023-04-10T03:33:58.437Z,35.50
2023-04-10T03:34:58.253Z,35.10
2023-04-10T03:35:58.519Z,36.20
2023-04-10T03:36:58.745Z,36.10
2023-04-10T03:37:58.981Z,37.00
2023-04-10T03:38:59.174Z,37.50
2023-04-10T03:39:59.500Z,37.80
2023-04-10T03:40:59.844Z,37.20
2023-04-10T03:42:00.060Z,37.90
2023-04-10T03:43:00.386Z,38.20
2023-04-10T03:44:00.598Z,37.20
2023-04-10T03:45:00.918Z,37.60
2023-04-10T03:46:01.159Z,37.90
2023-04-10T03:47:01.409Z,36.30
2023-04-10T03:48:01.677Z,35.80
2023-04-10T03:49:01.945Z,35.40
2023-04-10T03:50:02.244Z,35.60
2023-04-10T03:51:02.530Z,34.50
2023-04-10T03:52:02.724Z,36.10
2023-04-10T03:53:02.997Z,36.30
2023-04-10T03:54:03.307Z,37.50
2023-04-10T03:55:03.662Z,37.30
2023-04-10T03:56:03.908Z,37.90
2023-04-10T03:57:04.136Z,36.50
2023-04-10T03:58:04.359Z,36.30
2023-04-10T03:59:04.585Z,37.90
2023-04-10T04:00:04.814Z,37.30
2023-04-10T04:01:05.065Z,36.00
2023-04-10T04:02:05.394Z,36.20
2023-04-10T04:03:05.677Z,35.70
2023-04-10T04:04:05.881Z,36.30
2023-04-10T04:05:06.226Z,35.50
2023-04-10T04:06:06.381Z,35.50
2023-04-10T04:07:06.604Z,36.10
2023-04-10T04:08:06.860Z,35.90
2023-04-10T04:09:07.055Z,37.60
2023-04-10T04:10:07.275Z,36.10
2023-04-10T04:11:07.618Z,37.30
2023-04-10T04:12:07.833Z,37.50
2023-04-10T04:13:08.063Z,36.70
2023-04-10T04:14:08.265Z,37.30
2023-04-10T04:15:08.597Z,36.10
2023-04-10T04:16:08.889Z,37.30
2023-04-10T04:17:09.090Z,37.90
2023-04-10T04:18:09.284Z,38.30
2023-04-10T04:19:09.621Z,38.50
2023-04-10T04:20:09.832Z,38.60
2023-04-10T04:21:10.175Z,38.30
2023-04-10T04:22:10.377Z,39.20
2023-04-10T04:23:10.732Z,38.80
2023-04-10T04:24:10.932Z,38.40
2023-04-10T04:25:11.168Z,39.20
2023-04-10T04:26:11.506Z,39.10
2023-04-10T04:27:11.722Z,39.50
2023-04-10T04:28:12.065Z,39.50
2023-04-10T04:29:12.291Z,38.20
2023-04-10T04:30:12.517Z,38.40
2023-04-10T04:31:12.728Z,38.50
2023-04-10T04:32:13.060Z,39.20
2023-04-10T04:33:13.243Z,38.30
2023-04-10T04:34:13.432Z,38.10
2023-04-10T04:35:13.644Z,39.40
2023-04-10T04:36:13.979Z,37.80
2023-04-10T04:37:14.196Z,39.50
2023-04-10T04:38:14.538Z,39.00
2023-04-10T04:39:21.779Z,39.40
2023-04-10T04:40:17.817Z,40.00
2023-04-10T04:41:20.391Z,39.40
2023-04-10T04:42:15.664Z,39.60
2023-04-10T04:43:16.013Z,38.20
2023-04-10T04:44:16.326Z,38.60
2023-04-10T04:45:16.538Z,38.10
2023-04-10T04:46:16.798Z,38.30
2023-04-10T04:47:17.075Z,37.10
2023-04-10T04:48:17.234Z,37.00
2023-04-10T04:49:17.454Z,37.40
2023-04-10T04:50:17.777Z,37.70
2023-04-10T04:51:17.986Z,37.10
2023-04-10T04:52:18.327Z,38.40
2023-04-10T04:53:18.553Z,36.20
2023-04-10T04:54:18.783Z,36.00
2023-04-10T04:55:19.012Z,36.60
2023-04-10T04:56:19.221Z,37.80
2023-04-10T04:57:19.431Z,36.00
2023-04-10T04:58:19.772Z,37.80
2023-04-10T04:59:19.979Z,37.20
2023-04-10T05:00:20.328Z,37.50
2023-04-10T05:01:20.599Z,37.10
2023-04-10T05:02:20.889Z,37.90
2023-04-10T05:03:21.166Z,38.00
2023-04-10T05:04:21.412Z,39.10
2023-04-10T05:05:21.534Z,37.60
2023-04-10T05:06:21.789Z,37.90
2023-04-10T05:07:21.969Z,37.40
2023-04-10T05:08:22.305Z,38.40
2023-04-10T05:09:22.509Z,37.50
2023-04-10T05:10:22.840Z,36.00
2023-04-10T05:11:23.088Z,37.40
2023-04-10T05:12:23.320Z,37.90
2023-04-10T05:13:23.520Z,38.70
2023-04-10T05:14:23.831Z,38.80
2023-04-10T05:15:24.029Z,38.80
2023-04-10T05:16:24.359Z,39.00
2023-04-10T05:17:24.589Z,39.70
2023-04-10T05:18:24.812Z,39.60
2023-04-10T05:19:24.997Z,39.20
2023-04-10T05:20:25.321Z,39.80
2023-04-10T05:21:25.515Z,39.50
2023-04-10T05:22:25.836Z,38.80
2023-04-10T05:23:26.125Z,39.40
2023-04-10T05:24:26.480Z,38.10
2023-04-10T05:25:26.658Z,38.70
2023-04-10T05:26:26.970Z,37.90
2023-04-10T05:27:27.164Z,38.50
2023-04-10T05:28:27.468Z,36.90
2023-04-10T05:29:27.670Z,37.50
2023-04-10T05:30:27.987Z,37.40
2023-04-10T05:31:28.246Z,37.00
2023-04-10T05:32:28.472Z,37.70
2023-04-10T05:33:28.638Z,36.50
2023-04-10T05:34:28.946Z,36.30
2023-04-10T05:35:29.177Z,37.20
2023-04-10T05:36:29.393Z,36.30
2023-04-10T05:37:29.594Z,35.50
2023-04-10T05:38:29.818Z,35.30
2023-04-10T05:39:30.008Z,35.00
2023-04-10T05:40:30.342Z,36.00
2023-04-10T05:41:30.553Z,34.70
2023-04-10T05:42:30.761Z,34.60
2023-04-10T05:43:30.934Z,34.10
2023-04-10T05:44:31.263Z,34.60
2023-04-10T05:45:31.461Z,34.20
2023-04-10T05:46:31.838Z,33.90
2023-04-10T05:47:32.055Z,33.60
2023-04-10T05:48:32.217Z,33.50
2023-04-10T05:49:32.420Z,32.70
2023-04-10T05:50:32.622Z,33.40
2023-04-10T05:51:32.804Z,33.30
2023-04-10T05:52:33.107Z,32.30
2023-04-10T05:53:33.320Z,32.10
2023-04-10T05:54:33.522Z,31.50
2023-04-10T05:55:33.706Z,31.80
2023-04-10T05:56:34.034Z,31.10
2023-04-10T05:57:34.223Z,30.60
2023-04-10T05:58:34.383Z,29.50
2023-04-10T05:59:34.575Z,29.90
2023-04-10T06:00:34.768Z,29.00
2023-04-10T06:01:34.981Z,30.00
2023-04-10T06:02:35.367Z,30.30
2023-04-10T06:03:35.552Z,29.70
2023-04-10T06:04:35.864Z,30.60
2023-04-10T06:05:35.961Z,29.50
2023-04-10T06:06:36.165Z,29.80
2023-04-10T06:07:36.365Z,28.80
2023-04-10T06:08:36.580Z,29.80
2023-04-10T06:09:36.750Z,29.80
2023-04-10T06:10:37.037Z,28.50
2023-04-10T06:11:37.207Z,29.20
2023-04-10T06:12:37.521Z,28.80
2023-04-10T06:13:37.701Z,29.10
2023-04-10T06:14:37.985Z,29.20
2023-04-10T06:15:38.410Z,28.10
2023-04-10T06:16:38.408Z,27.80
2023-04-10T06:17:38.534Z,27.30
2023-04-10T06:18:38.812Z,28.10
2023-04-10T06:19:38.977Z,28.10
2023-04-10T06:20:39.250Z,27.40
2023-04-10T06:21:39.539Z,27.50
2023-04-10T06:22:39.792Z,27.20
2023-04-10T06:23:39.954Z,27.70
2023-04-10T06:24:40.224Z,27.80
2023-04-10T06:25:40.371Z,27.00
2023-04-10T06:26:40.562Z,27.50
2023-04-10T06:27:40.725Z,27.10
2023-04-10T06:28:40.888Z,27.40
2023-04-10T06:29:41.061Z,26.70
2023-04-10T06:30:41.368Z,26.80
2023-04-10T06:31:42.404Z,27.20
2023-04-10T06:32:41.687Z,26.20
2023-04-10T06:33:41.834Z,26.40
2023-04-10T06:34:42.016Z,27.80
2023-04-10T06:35:42.196Z,27.40
2023-04-10T06:36:42.369Z,28.80
2023-04-10T06:37:42.532Z,28.00
2023-04-10T06:38:42.747Z,27.00
2023-04-10T06:39:42.898Z,27.20
2023-04-10T06:40:43.058Z,26.90
2023-04-10T06:41:43.230Z,27.80
2023-04-10T06:42:43.387Z,27.50
2023-04-10T06:43:43.554Z,30.20
2023-04-10T06:44:43.806Z,29.40
2023-04-10T06:45:43.954Z,30.60
2023-04-10T06:46:44.157Z,29.90
2023-04-10T06:47:44.340Z,29.60
2023-04-10T06:48:44.448Z,29.40
2023-04-10T06:49:44.594Z,28.30
2023-04-10T06:50:44.746Z,29.10
2023-04-10T06:51:44.906Z,29.30
2023-04-10T06:52:45.073Z,30.20
2023-04-10T06:53:45.219Z,30.10
2023-04-10T06:54:45.499Z,30.30
2023-04-10T06:55:45.659Z,30.00
2023-04-10T06:56:45.916Z,29.00
2023-04-10T06:57:46.062Z,28.80
2023-04-10T06:58:46.219Z,30.00
2023-04-10T06:59:46.383Z,28.70
2023-04-10T07:00:46.574Z,28.80
2023-04-10T07:01:46.744Z,33.90
2023-04-10T07:02:46.881Z,35.70
2023-04-10T07:03:47.072Z,35.60
2023-04-10T07:04:47.198Z,36.40
2023-04-10T07:05:47.374Z,35.50
2023-04-10T07:06:47.623Z,36.40
2023-04-10T07:07:47.763Z,35.80
2023-04-10T07:08:48.030Z,36.10
2023-04-10T07:09:48.174Z,36.60
2023-04-10T07:10:48.461Z,35.70
2023-04-10T07:11:49.584Z,36.50
2023-04-10T07:12:48.851Z,35.50
2023-04-10T07:13:49.015Z,36.20
2023-04-10T07:14:49.163Z,35.60
2023-04-10T07:15:49.317Z,37.70
2023-04-10T07:16:49.698Z,36.30
2023-04-10T07:17:49.877Z,38.10
2023-04-10T07:18:50.004Z,39.10
2023-04-10T07:19:50.164Z,38.50
2023-04-10T07:20:50.326Z,37.70
2023-04-10T07:21:50.467Z,38.30
2023-04-10T07:22:50.630Z,37.70
2023-04-10T07:23:50.775Z,38.30
2023-04-10T07:24:51.032Z,37.80
2023-04-10T07:25:51.175Z,37.40
2023-04-10T07:26:51.447Z,37.70
2023-04-10T07:27:51.571Z,36.90
2023-04-10T07:28:52.029Z,37.10
2023-04-10T07:29:51.990Z,37.60
2023-04-10T07:30:52.129Z,36.50
2023-04-10T07:31:52.347Z,36.10
2023-04-10T07:32:52.658Z,36.80
2023-04-10T07:33:52.680Z,35.40
2023-04-10T07:34:52.848Z,36.80
2023-04-10T07:35:53.074Z,36.00
2023-04-10T07:36:53.160Z,36.30
2023-04-10T07:37:53.284Z,35.20
2023-04-10T07:38:53.776Z,35.10
2023-04-10T07:39:53.605Z,34.30
2023-04-10T07:40:53.857Z,34.10
2023-04-10T07:41:53.979Z,34.80
2023-04-10T07:42:54.122Z,33.30
2023-04-10T07:43:54.199Z,33.60
2023-04-10T07:44:54.433Z,33.00
2023-04-10T07:45:54.627Z,32.10
2023-04-10T07:46:54.740Z,32.90
2023-04-10T07:47:54.914Z,32.70
2023-04-10T07:48:55.442Z,33.20
2023-04-10T07:49:55.210Z,32.50
2023-04-10T07:50:56.291Z,30.90
2023-04-10T07:51:55.545Z,31.60
2023-04-10T07:52:55.655Z,31.50
2023-04-10T07:53:55.771Z,32.20
2023-04-10T07:54:55.914Z,31.20
2023-04-10T07:55:56.026Z,31.90
2023-04-10T07:56:56.142Z,31.10
2023-04-10T07:57:56.254Z,30.50
2023-04-10T07:58:56.523Z,30.30
2023-04-10T07:59:56.521Z,30.50
2023-04-10T08:00:56.723Z,31.00
2023-04-10T08:01:56.849Z,29.90
2023-04-10T08:02:57.190Z,29.70
2023-04-10T08:03:57.220Z,30.00
2023-04-10T08:04:57.372Z,30.50
2023-04-10T08:05:57.451Z,29.60
2023-04-10T08:06:57.562Z,30.40
2023-04-10T08:07:57.647Z,29.30
2023-04-10T08:08:57.754Z,29.20
2023-04-10T08:09:57.837Z,29.60
2023-04-10T08:10:58.038Z,28.00
2023-04-10T08:11:58.146Z,28.70
2023-04-10T08:12:58.290Z,28.70
2023-04-10T08:13:58.354Z,28.10
2023-04-10T08:14:58.438Z,28.10
2023-04-10T08:15:58.531Z,27.60
2023-04-10T08:16:58.671Z,28.10
2023-04-10T08:17:58.790Z,28.20
2023-04-10T08:18:58.844Z,28.40
2023-04-10T08:19:58.929Z,29.50
2023-04-10T08:20:59.008Z,28.60
2023-04-10T08:21:59.082Z,28.60
2023-04-10T08:23:09.189Z,29.50
2023-04-10T08:24:00.284Z,32.40
2023-04-10T08:24:59.449Z,30.90
2023-04-10T08:25:59.613Z,30.30
2023-04-10T08:26:59.695Z,31.50
2023-04-10T08:27:59.773Z,31.80
2023-04-10T08:28:59.893Z,30.60
2023-04-10T08:29:59.959Z,30.60
2023-04-10T08:31:00.063Z,30.40
2023-04-10T08:32:00.136Z,30.00
2023-04-10T08:33:00.279Z,30.10
2023-04-10T08:34:00.704Z,29.40
2023-04-10T08:35:00.570Z,28.90
2023-04-10T08:36:00.654Z,29.00
2023-04-10T08:37:00.722Z,29.80
2023-04-10T08:38:12.614Z,29.10
2023-04-10T08:39:01.875Z,28.90
2023-04-10T08:40:00.940Z,28.80
2023-04-10T08:41:00.988Z,28.40
2023-04-10T08:42:01.209Z,28.30
2023-04-10T08:43:01.297Z,27.20
2023-04-10T08:44:01.370Z,26.10
2023-04-10T08:45:01.461Z,26.60
2023-04-10T08:46:01.577Z,26.80
2023-04-10T08:47:01.688Z,26.10
2023-04-10T08:48:01.834Z,26.40
2023-04-10T08:49:01.907Z,25.90
2023-04-10T08:50:01.964Z,24.90
2023-04-10T08:51:02.213Z,25.70
2023-04-10T08:52:02.210Z,25.20
2023-04-10T08:53:02.279Z,24.60
2023-04-10T08:54:02.374Z,24.00
2023-04-10T08:55:02.476Z,23.50
2023-04-10T08:56:02.507Z,25.20
2023-04-10T08:57:02.631Z,25.10
2023-04-10T08:58:02.662Z,25.10
2023-04-10T08:59:02.742Z,25.40
2023-04-10T09:00:16.414Z,24.20
2023-04-10T09:01:03.958Z,25.10
2023-04-10T09:02:03.179Z,25.20
2023-04-10T09:03:03.149Z,25.20
2023-04-10T09:04:03.420Z,24.40
2023-04-10T09:05:03.207Z,24.60
2023-04-10T09:06:03.258Z,23.50
2023-04-10T09:07:03.327Z,24.20
2023-04-10T09:08:03.366Z,24.20
2023-04-10T09:09:03.440Z,22.90
2023-04-10T09:10:03.498Z,22.90
2023-04-10T09:11:03.533Z,24.00
2023-04-10T09:12:03.672Z,23.50
2023-04-10T09:13:03.736Z,23.50
2023-04-10T09:14:03.782Z,22.40
2023-04-10T09:15:03.829Z,22.10
2023-04-10T09:16:03.946Z,22.30
2023-04-10T09:17:04.007Z,22.60
2023-04-10T09:18:04.120Z,22.70
2023-04-10T09:19:06.379Z,22.80
2023-04-10T09:20:04.243Z,21.60
2023-04-10T09:21:04.267Z,21.70
2023-04-10T09:22:04.337Z,21.50
2023-04-10T09:23:04.386Z,21.20
2023-04-10T09:24:04.430Z,21.50
2023-04-10T09:25:04.464Z,21.40
2023-04-10T09:26:04.521Z,20.70
2023-04-10T09:27:04.564Z,20.60
2023-04-10T09:28:04.613Z,20.40
2023-04-10T09:29:04.661Z,19.50
2023-04-10T09:30:04.752Z,18.10
2023-04-10T09:31:04.793Z,18.50
2023-04-10T09:32:04.801Z,18.40
2023-04-10T09:33:04.959Z,19.50
2023-04-10T09:34:04.966Z,19.80
2023-04-10T09:35:04.995Z,19.10
2023-04-10T09:36:05.039Z,18.90
2023-04-10T09:37:05.075Z,18.50
2023-04-10T09:38:05.116Z,17.70
2023-04-10T09:39:05.149Z,17.40
2023-04-10T09:40:05.253Z,17.70
2023-04-10T09:41:05.246Z,17.90
2023-04-10T09:42:05.288Z,18.00
2023-04-10T09:43:05.351Z,17.30
2023-04-10T09:44:05.377Z,17.90
2023-04-10T09:45:05.383Z,17.00
2023-04-10T09:46:05.524Z,18.10
2023-04-10T09:47:05.553Z,18.50
2023-04-10T09:48:05.624Z,18.30
2023-04-10T09:49:05.625Z,16.80
2023-04-10T09:50:05.673Z,17.30
2023-04-10T09:51:05.704Z,17.60
2023-04-10T09:52:05.759Z,16.60
2023-04-10T09:53:05.815Z,16.60
2023-04-10T09:54:05.846Z,16.80
2023-04-10T09:55:05.897Z,16.40
2023-04-10T09:56:05.936Z,16.90
2023-04-10T09:57:05.987Z,17.60
2023-04-10T09:58:06.054Z,17.70
2023-04-10T09:59:06.070Z,17.40
2023-04-10T10:00:06.123Z,17.90
2023-04-10T10:01:06.159Z,17.10
2023-04-10T10:02:06.246Z,16.50
2023-04-10T10:03:06.489Z,15.30
2023-04-10T10:04:06.391Z,15.10
2023-04-10T10:05:06.459Z,14.40
2023-04-10T10:06:06.481Z,14.50
2023-04-10T10:07:06.524Z,13.80
2023-04-10T10:08:06.574Z,14.60
2023-04-10T10:09:06.623Z,14.60
2023-04-10T10:10:06.652Z,12.70
2023-04-10T10:11:06.684Z,13.70
2023-04-10T10:12:06.742Z,13.70
2023-04-10T10:13:06.803Z,14.30
2023-04-10T10:14:06.803Z,13.60
2023-04-10T10:15:06.822Z,13.10
2023-04-10T10:16:06.924Z,12.40
2023-04-10T10:17:06.936Z,12.00
2023-04-10T10:18:07.105Z,12.70
2023-04-10T10:19:06.985Z,12.50
2023-04-10T10:20:07.039Z,12.60
2023-04-10T10:21:07.055Z,12.20
2023-04-10T10:22:07.110Z,11.30
2023-04-10T10:23:07.131Z,12.20
2023-04-10T10:24:07.154Z,12.30
2023-04-10T10:25:07.183Z,12.40
2023-04-10T10:26:07.213Z,11.70
2023-04-10T10:27:07.275Z,12.00
2023-04-10T10:28:07.300Z,11.40
2023-04-10T10:29:07.329Z,11.20
2023-04-10T10:30:20.132Z,11.30
2023-04-10T10:31:08.431Z,12.20
2023-04-10T10:32:07.451Z,11.70
2023-04-10T10:33:07.455Z,10.90
2023-04-10T10:34:07.536Z,10.70
2023-04-10T10:35:07.537Z,11.50
2023-04-10T10:36:07.542Z,12.20
2023-04-10T10:37:07.567Z,12.00
2023-04-10T10:38:07.623Z,11.50
2023-04-10T10:39:07.698Z,11.80
2023-04-10T10:40:14.715Z,11.20
2023-04-10T10:41:07.751Z,11.10
2023-04-10T10:42:07.773Z,11.00
2023-04-10T10:43:07.806Z,10.80
2023-04-10T10:44:07.831Z,11.40
2023-04-10T10:45:07.836Z,11.50
2023-04-10T10:46:07.923Z,11.00
2023-04-10T10:47:07.920Z,10.20
2023-04-10T10:48:08.049Z,10.80
2023-04-10T10:49:07.963Z,9.70
2023-04-10T10:50:08.011Z,10.80
2023-04-10T10:51:08.036Z,11.60
2023-04-10T10:52:08.070Z,10.70
2023-04-10T10:53:08.090Z,13.50
2023-04-10T10:54:08.117Z,11.00
2023-04-10T10:55:08.143Z,11.30
2023-04-10T10:56:08.179Z,11.10
2023-04-10T10:57:08.200Z,10.50
2023-04-10T10:58:08.232Z,10.80
2023-04-10T10:59:08.274Z,10.80
2023-04-10T11:00:08.295Z,10.00
2023-04-10T11:01:10.306Z,10.20
2023-04-10T11:02:08.633Z,10.40
2023-04-10T11:03:08.637Z,10.80
2023-04-10T11:04:08.551Z,10.40
2023-04-10T11:05:08.535Z,10.40
2023-04-10T11:06:08.589Z,10.80
2023-04-10T11:07:08.613Z,10.90
2023-04-10T11:08:08.676Z,10.00
2023-04-10T11:09:08.667Z,9.60
2023-04-10T11:10:08.696Z,10.00
2023-04-10T11:11:08.751Z,9.90
2023-04-10T11:12:08.789Z,10.00
2023-04-10T11:13:08.817Z,9.80
2023-04-10T11:14:08.850Z,9.20
2023-04-10T11:15:09.375Z,9.60
2023-04-10T11:16:08.991Z,9.80
2023-04-10T11:17:09.080Z,9.80
2023-04-10T11:18:09.068Z,10.00
2023-04-10T11:19:14.754Z,9.50
2023-04-10T11:20:10.124Z,9.70
2023-04-10T11:21:09.148Z,10.10
2023-04-10T11:22:09.322Z,9.50
2023-04-10T11:23:09.249Z,9.50
2023-04-10T11:24:09.241Z,9.40
2023-04-10T11:25:09.264Z,9.20
2023-04-10T11:26:09.316Z,9.40
2023-04-10T11:27:09.385Z,9.20
2023-04-10T11:28:09.410Z,9.40
2023-04-10T11:29:09.470Z,10.00
2023-04-10T11:30:09.527Z,9.70
2023-04-10T11:31:09.554Z,10.40
2023-04-10T11:32:09.713Z,10.00
2023-04-10T11:33:09.661Z,9.90
2023-04-10T11:34:09.666Z,9.50
2023-04-10T11:35:09.700Z,9.20
2023-04-10T11:36:09.733Z,9.40
2023-04-10T11:37:09.773Z,9.60
2023-04-10T11:38:09.831Z,9.00
2023-04-10T11:39:09.894Z,9.60
2023-04-10T11:40:09.925Z,9.00
2023-04-10T11:41:09.960Z,8.90
2023-04-10T11:42:10.000Z,9.40
2023-04-10T11:43:10.029Z,9.40
2023-04-10T11:44:10.258Z,9.10
2023-04-10T11:45:10.162Z,9.80
2023-04-10T11:46:10.299Z,9.90
2023-04-10T11:47:10.264Z,9.50
2023-04-10T11:48:10.320Z,9.90
2023-04-10T11:49:10.347Z,9.70
2023-04-10T11:50:10.475Z,10.30
2023-04-10T11:51:10.526Z,10.30
2023-04-10T11:52:10.589Z,9.90
2023-04-10T11:53:10.610Z,9.80
2023-04-10T11:54:10.642Z,9.60
2023-04-10T11:55:10.666Z,9.80
2023-04-10T11:56:10.693Z,9.70
2023-04-10T11:57:10.755Z,9.90
2023-04-10T11:58:10.789Z,9.80
2023-04-10T11:59:11.059Z,9.40
2023-04-10T12:00:10.890Z,10.20
2023-04-10T12:01:10.931Z,10.00
2023-04-10T12:02:11.115Z,9.80
2023-04-10T12:03:11.162Z,9.40
2023-04-10T12:04:11.248Z,9.60
2023-04-10T12:05:11.268Z,9.60
2023-04-10T12:06:11.329Z,9.70
2023-04-10T12:07:11.378Z,9.30
2023-04-10T12:08:11.424Z,10.10
2023-04-10T12:09:11.478Z,11.00
2023-04-10T12:10:11.502Z,10.50
2023-04-10T12:11:11.551Z,10.50
2023-04-10T12:12:11.605Z,10.00
2023-04-10T12:13:11.636Z,9.90
2023-04-10T12:14:11.677Z,10.10
2023-04-10T12:15:11.723Z,9.50
2023-04-10T12:16:11.876Z,9.70
2023-04-10T12:17:11.888Z,10.00
2023-04-10T12:18:11.893Z,9.60
2023-04-10T12:19:11.944Z,9.50
2023-04-10T12:20:11.998Z,9.20
2023-04-10T12:21:12.026Z,8.80
2023-04-10T12:22:12.126Z,8.80
2023-04-10T12:23:12.143Z,8.80
2023-04-10T12:24:12.202Z,8.70
2023-04-10T12:25:12.268Z,9.00
2023-04-10T12:26:12.334Z,8.40
2023-04-10T12:27:12.377Z,8.50
2023-04-10T12:28:12.424Z,8.30
2023-04-10T12:29:12.469Z,8.80
2023-04-10T12:30:12.541Z,9.00
2023-04-10T12:31:12.686Z,8.70
2023-04-10T12:32:12.730Z,8.60
2023-04-10T12:33:12.765Z,8.70
2023-04-10T12:34:12.806Z,8.30
2023-04-10T12:35:12.880Z,8.00
2023-04-10T12:36:12.916Z,8.60
2023-04-10T12:37:12.953Z,7.80
2023-04-10T12:38:13.007Z,8.40
2023-04-10T12:39:13.058Z,8.40
2023-04-10T12:40:13.118Z,8.80
2023-04-10T12:41:13.162Z,8.40
2023-04-10T12:42:13.234Z,8.60
2023-04-10T12:43:13.292Z,7.90
2023-04-10T12:44:13.324Z,8.10
2023-04-10T12:45:13.388Z,8.40
2023-04-10T12:46:13.474Z,8.60
2023-04-10T12:47:13.509Z,8.20
2023-04-10T12:48:13.567Z,8.30
2023-04-10T12:49:13.619Z,8.50
2023-04-10T12:50:13.701Z,7.50
2023-04-10T12:51:13.755Z,8.00
2023-04-10T12:52:13.807Z,7.80
2023-04-10T12:53:14.166Z,6.90
2023-04-10T12:54:13.999Z,6.50
2023-04-10T12:55:14.049Z,6.50
2023-04-10T12:56:14.076Z,6.50
2023-04-10T12:57:14.150Z,5.60